createdAt,value
2019-02-03T00:00:50.502Z,3.37
2019-02-03T00:01:50.506Z,3.44
2019-02-03T00:02:50.509Z,3.42
2019-02-03T00:03:50.537Z,3.46
2019-02-03T00:04:50.516Z,3.54
2019-02-03T00:05:50.508Z,3.53
2019-02-03T00:07:02.653Z,3.49
2019-02-03T00:07:50.512Z,3.53
2019-02-03T00:08:50.516Z,3.42
2019-02-03T00:10:50.520Z,3.53
2019-02-03T00:11:50.522Z,3.46
2019-02-03T00:12:50.518Z,3.44
2019-02-03T00:13:50.517Z,3.42
2019-02-03T00:14:50.531Z,3.46
2019-02-03T00:15:50.520Z,3.41
2019-02-03T00:16:50.524Z,3.45
2019-02-03T00:17:50.532Z,3.53
2019-02-03T00:18:50.538Z,3.53
2019-02-03T00:19:50.532Z,3.50
2019-02-03T00:20:50.546Z,3.52
2019-02-03T00:21:50.530Z,3.53
2019-02-03T00:22:50.542Z,3.37
2019-02-03T00:24:11.556Z,3.45
2019-02-03T00:24:50.538Z,3.41
2019-02-03T00:25:50.538Z,3.39
2019-02-03T00:26:50.543Z,3.33
2019-02-03T00:27:50.551Z,3.35
2019-02-03T00:28:50.543Z,3.31
2019-02-03T00:29:50.538Z,3.28
2019-02-03T00:30:50.543Z,3.34
2019-02-03T00:31:50.553Z,3.31
2019-02-03T00:32:51.723Z,3.42
2019-02-03T00:33:50.571Z,3.50
2019-02-03T00:34:50.554Z,3.37
2019-02-03T00:35:50.567Z,3.50
2019-02-03T00:36:50.674Z,3.42
2019-02-03T00:37:50.644Z,3.44
2019-02-03T00:38:50.683Z,3.41
2019-02-03T00:39:50.708Z,3.39
2019-02-03T00:40:50.675Z,3.41
2019-02-03T00:41:50.682Z,3.45
2019-02-03T00:42:50.572Z,3.45
2019-02-03T00:43:50.577Z,3.41
2019-02-03T00:44:50.566Z,3.50
2019-02-03T00:45:50.563Z,3.42
2019-02-03T00:46:50.564Z,3.50
2019-02-03T00:47:50.568Z,3.46
2019-02-03T00:48:50.568Z,3.45
2019-02-03T00:49:50.575Z,3.44
2019-02-03T00:50:50.567Z,3.56
2019-02-03T00:51:50.576Z,3.50
2019-02-03T00:52:50.577Z,3.39
2019-02-03T00:53:50.573Z,3.39
2019-02-03T00:54:50.576Z,3.35
2019-02-03T00:55:50.575Z,3.22
2019-02-03T00:56:50.576Z,3.28
2019-02-03T00:57:50.576Z,3.30
2019-02-03T00:58:50.579Z,3.31
2019-02-03T00:59:50.579Z,3.31
2019-02-03T01:00:50.579Z,3.37
2019-02-03T01:01:50.581Z,3.35
2019-02-03T01:02:50.588Z,3.39
2019-02-03T01:03:50.586Z,3.45
2019-02-03T01:05:50.597Z,3.41
2019-02-03T01:06:50.588Z,3.45
2019-02-03T01:07:50.591Z,3.50
2019-02-03T01:08:50.592Z,3.46
2019-02-03T01:09:50.592Z,3.53
2019-02-03T01:10:50.600Z,3.50
2019-02-03T01:11:50.591Z,3.37
2019-02-03T01:12:50.593Z,3.49
2019-02-03T01:13:50.600Z,3.49
2019-02-03T01:14:50.610Z,3.42
2019-02-03T01:15:50.606Z,3.42
2019-02-03T01:16:50.604Z,3.42
2019-02-03T01:17:50.605Z,3.39
2019-02-03T01:18:50.618Z,3.37
2019-02-03T01:19:50.611Z,3.33
2019-02-03T01:20:50.611Z,3.45
2019-02-03T01:21:50.608Z,3.42
2019-02-03T01:22:50.646Z,3.41
2019-02-03T01:23:50.629Z,3.39
2019-02-03T01:24:50.613Z,3.37
2019-02-03T01:25:50.637Z,3.53
2019-02-03T01:26:50.618Z,3.50
2019-02-03T01:27:50.622Z,3.50
2019-02-03T01:28:50.754Z,3.41
2019-02-03T01:30:50.621Z,3.39
2019-02-03T01:31:50.626Z,3.37
2019-02-03T01:32:50.670Z,3.41
2019-02-03T01:33:50.621Z,3.45
2019-02-03T01:34:50.624Z,3.42
2019-02-03T01:35:50.627Z,3.50
2019-02-03T01:36:50.635Z,3.52
2019-02-03T01:37:50.641Z,3.44
2019-02-03T01:38:50.635Z,3.45
2019-02-03T01:39:50.643Z,3.50
2019-02-03T01:40:50.644Z,3.53
2019-02-03T01:41:50.656Z,3.50
2019-02-03T01:42:50.630Z,3.53
2019-02-03T01:43:50.637Z,3.45
2019-02-03T01:44:50.647Z,3.45
2019-02-03T01:45:50.639Z,3.37
2019-02-03T01:46:50.686Z,3.45
2019-02-03T01:47:50.643Z,3.34
2019-02-03T01:48:50.643Z,3.33
2019-02-03T01:49:50.647Z,3.23
2019-02-03T01:50:50.640Z,3.26
2019-02-03T01:51:50.649Z,3.17
2019-02-03T01:52:50.672Z,3.19
2019-02-03T01:53:50.650Z,3.17
2019-02-03T01:54:50.653Z,3.19
2019-02-03T01:55:50.663Z,3.10
2019-02-03T01:56:50.655Z,3.10
2019-02-03T01:57:50.656Z,3.15
2019-02-03T01:58:50.659Z,3.19
2019-02-03T01:59:50.662Z,3.16
2019-02-03T02:00:50.663Z,3.17
2019-02-03T02:01:50.665Z,3.16
2019-02-03T02:02:50.667Z,3.19
2019-02-03T02:03:50.672Z,3.22
2019-02-03T02:04:50.659Z,3.25
2019-02-03T02:05:50.666Z,3.25
2019-02-03T02:06:53.004Z,3.22
2019-02-03T02:07:52.057Z,3.30
2019-02-03T02:08:50.674Z,3.22
2019-02-03T02:09:50.673Z,3.19
2019-02-03T02:10:50.673Z,3.19
2019-02-03T02:11:50.677Z,3.13
2019-02-03T02:12:50.674Z,3.02
2019-02-03T02:13:50.679Z,3.05
2019-02-03T02:14:50.682Z,3.04
2019-02-03T02:15:50.682Z,3.08
2019-02-03T02:16:50.686Z,2.97
2019-02-03T02:17:50.691Z,2.98
2019-02-03T02:19:50.685Z,2.90
2019-02-03T02:20:50.685Z,2.86
2019-02-03T02:21:50.690Z,2.87
2019-02-03T02:22:50.691Z,2.95
2019-02-03T02:23:50.697Z,2.87
2019-02-03T02:24:50.695Z,2.89
2019-02-03T02:25:50.696Z,2.84
2019-02-03T02:26:50.688Z,2.77
2019-02-03T02:27:50.694Z,2.80
2019-02-03T02:28:50.688Z,2.81
2019-02-03T02:29:50.690Z,2.77
2019-02-03T02:30:50.698Z,2.90
2019-02-03T02:31:50.699Z,2.90
2019-02-03T02:32:50.708Z,2.79
2019-02-03T02:33:50.709Z,2.81
2019-02-03T02:34:50.708Z,2.80
2019-02-03T02:35:50.707Z,2.71
2019-02-03T02:36:50.701Z,2.80
2019-02-03T02:37:56.904Z,2.81
2019-02-03T02:38:50.707Z,2.71
2019-02-03T02:39:50.708Z,2.73
2019-02-03T02:40:50.709Z,2.66
2019-02-03T02:41:50.777Z,2.71
2019-02-03T02:42:50.703Z,2.59
2019-02-03T02:43:50.704Z,2.65
2019-02-03T02:44:50.706Z,2.53
2019-02-03T02:45:50.709Z,2.56
2019-02-03T02:46:50.711Z,2.56
2019-02-03T02:47:50.714Z,2.56
2019-02-03T02:48:50.717Z,2.62
2019-02-03T02:49:50.714Z,2.58
2019-02-03T02:50:50.713Z,2.55
2019-02-03T02:51:50.714Z,2.53
2019-02-03T02:52:50.713Z,2.56
2019-02-03T02:53:50.718Z,2.62
2019-02-03T02:54:50.722Z,2.62
2019-02-03T02:55:50.717Z,2.53
2019-02-03T02:56:50.716Z,2.51
2019-02-03T02:57:50.735Z,2.37
2019-02-03T02:58:50.717Z,2.38
2019-02-03T02:59:50.721Z,2.33
2019-02-03T03:00:50.718Z,2.45
2019-02-03T03:01:50.713Z,2.36
2019-02-03T03:02:50.722Z,2.40
2019-02-03T03:03:50.725Z,2.32
2019-02-03T03:04:50.733Z,2.36
2019-02-03T03:05:50.727Z,2.38
2019-02-03T03:06:50.725Z,2.40
2019-02-03T03:07:50.723Z,2.36
2019-02-03T03:09:50.722Z,2.36
2019-02-03T03:10:50.727Z,2.32
2019-02-03T03:11:50.727Z,2.36
2019-02-03T03:12:50.731Z,2.36
2019-02-03T03:13:50.739Z,2.27
2019-02-03T03:14:50.727Z,2.37
2019-02-03T03:15:50.719Z,2.27
2019-02-03T03:16:50.725Z,2.37
2019-02-03T03:17:50.732Z,2.36
2019-02-03T03:18:50.725Z,2.30
2019-02-03T03:19:50.729Z,2.36
2019-02-03T03:20:50.733Z,2.22
2019-02-03T03:21:50.736Z,2.27
2019-02-03T03:22:50.729Z,2.27
2019-02-03T03:23:50.732Z,2.22
2019-02-03T03:24:50.740Z,2.25
2019-02-03T03:25:50.774Z,2.25
2019-02-03T03:26:50.734Z,2.27
2019-02-03T03:27:50.786Z,2.25
2019-02-03T03:28:50.740Z,2.23
2019-02-03T03:29:50.733Z,2.32
2019-02-03T03:30:50.731Z,2.14
2019-02-03T03:31:50.736Z,2.22
2019-02-03T03:32:50.758Z,2.15
2019-02-03T03:33:50.750Z,2.23
2019-02-03T03:34:50.740Z,2.18
2019-02-03T03:35:50.742Z,2.18
2019-02-03T03:36:50.738Z,2.08
2019-02-03T03:37:50.739Z,2.05
2019-02-03T03:38:50.740Z,2.05
2019-02-03T03:39:50.753Z,2.07
2019-02-03T03:40:50.741Z,2.07
2019-02-03T03:41:50.738Z,2.11
2019-02-03T03:42:50.746Z,2.09
2019-02-03T03:43:50.734Z,2.04
2019-02-03T03:44:50.741Z,2.05
2019-02-03T03:45:50.875Z,2.11
2019-02-03T03:46:50.740Z,2.02
2019-02-03T03:47:50.742Z,2.02
2019-02-03T03:48:50.749Z,2.05
2019-02-03T03:49:50.743Z,2.05
2019-02-03T03:50:50.752Z,2.07
2019-02-03T03:51:50.743Z,2.05
2019-02-03T03:52:50.753Z,2.07
2019-02-03T03:53:50.753Z,2.04
2019-02-03T03:54:50.751Z,2.04
2019-02-03T03:55:50.744Z,2.11
2019-02-03T03:56:50.761Z,2.08
2019-02-03T03:57:50.784Z,1.93
2019-02-03T03:58:50.746Z,2.08
2019-02-03T03:59:50.747Z,2.05
2019-02-03T04:00:50.753Z,2.01
2019-02-03T04:01:50.751Z,2.04
2019-02-03T04:02:50.754Z,2.01
2019-02-03T04:03:50.762Z,1.95
2019-02-03T04:04:50.754Z,1.88
2019-02-03T04:05:50.750Z,1.98
2019-02-03T04:06:50.756Z,2.00
2019-02-03T04:07:50.761Z,1.95
2019-02-03T04:08:50.751Z,1.90
2019-02-03T04:09:50.957Z,1.95
2019-02-03T04:10:50.750Z,1.95
2019-02-03T04:11:50.755Z,1.85
2019-02-03T04:12:50.819Z,1.90
2019-02-03T04:13:50.756Z,1.92
2019-02-03T04:14:50.750Z,1.89
2019-02-03T04:15:50.756Z,2.00
2019-02-03T04:16:50.753Z,1.89
2019-02-03T04:17:50.758Z,1.93
2019-02-03T04:18:51.481Z,2.02
2019-02-03T04:19:50.753Z,2.00
2019-02-03T04:20:50.753Z,2.00
2019-02-03T04:21:50.761Z,2.00
2019-02-03T04:22:50.761Z,1.93
2019-02-03T04:23:50.762Z,1.90
2019-02-03T04:24:50.775Z,1.98
2019-02-03T04:25:50.760Z,1.93
2019-02-03T04:27:50.771Z,2.00
2019-02-03T04:28:50.762Z,1.95
2019-02-03T04:29:50.764Z,1.85
2019-02-03T04:30:50.759Z,1.95
2019-02-03T04:31:50.758Z,1.88
2019-02-03T04:32:50.758Z,1.95
2019-02-03T04:33:50.762Z,1.89
2019-02-03T04:34:50.758Z,1.89
2019-02-03T04:35:50.752Z,2.01
2019-02-03T04:36:50.759Z,2.01
2019-02-03T04:37:50.763Z,1.90
2019-02-03T04:38:58.247Z,1.92
2019-02-03T04:39:50.760Z,2.05
2019-02-03T04:40:50.762Z,2.08
2019-02-03T04:41:50.760Z,2.07
2019-02-03T04:42:50.784Z,2.02
2019-02-03T04:43:50.775Z,2.08
2019-02-03T04:44:50.764Z,2.01
2019-02-03T04:45:50.773Z,2.04
2019-02-03T04:46:50.971Z,1.93
2019-02-03T04:47:50.793Z,1.92
2019-02-03T04:48:50.766Z,2.00
2019-02-03T04:49:50.762Z,2.05
2019-02-03T04:50:50.931Z,2.08
2019-02-03T04:51:50.767Z,2.05
2019-02-03T04:52:50.808Z,2.02
2019-02-03T04:53:50.770Z,2.08
2019-02-03T04:54:50.777Z,1.95
2019-02-03T04:55:50.770Z,2.00
2019-02-03T04:56:50.769Z,1.93
2019-02-03T04:57:50.769Z,1.95
2019-02-03T04:58:50.772Z,1.95
2019-02-03T04:59:50.770Z,1.98
2019-02-03T05:00:50.778Z,1.92
2019-02-03T05:01:50.775Z,2.04
2019-02-03T05:02:50.915Z,2.07
2019-02-03T05:03:50.763Z,2.05
2019-02-03T05:04:50.787Z,2.04
2019-02-03T05:05:50.770Z,2.05
2019-02-03T05:06:50.770Z,2.07
2019-02-03T05:07:50.770Z,2.25
2019-02-03T05:08:50.776Z,2.20
2019-02-03T05:09:50.770Z,2.20
2019-02-03T05:10:50.776Z,2.27
2019-02-03T05:11:50.767Z,2.26
2019-02-03T05:12:50.772Z,2.23
2019-02-03T05:13:50.776Z,2.27
2019-02-03T05:14:50.790Z,2.26
2019-02-03T05:15:50.783Z,2.23
2019-02-03T05:16:50.777Z,2.19
2019-02-03T05:17:50.786Z,2.20
2019-02-03T05:18:50.782Z,2.25
2019-02-03T05:19:50.787Z,2.25
2019-02-03T05:20:50.775Z,2.25
2019-02-03T05:21:50.910Z,2.38
2019-02-03T05:22:50.779Z,2.38
2019-02-03T05:23:50.781Z,2.30
2019-02-03T05:24:50.784Z,2.27
2019-02-03T05:25:50.783Z,2.32
2019-02-03T05:26:50.789Z,2.43
2019-02-03T05:27:50.783Z,2.41
2019-02-03T05:28:50.783Z,2.38
2019-02-03T05:29:50.809Z,2.43
2019-02-03T05:30:50.794Z,2.48
2019-02-03T05:31:50.787Z,2.53
2019-02-03T05:32:50.787Z,2.56
2019-02-03T05:33:50.791Z,2.50
2019-02-03T05:34:50.792Z,2.56
2019-02-03T05:35:50.787Z,2.50
2019-02-03T05:36:50.787Z,2.59
2019-02-03T05:37:50.828Z,2.53
2019-02-03T05:38:50.791Z,2.53
2019-02-03T05:39:50.793Z,2.58
2019-02-03T05:40:50.795Z,2.59
2019-02-03T05:41:50.800Z,2.59
2019-02-03T05:42:50.796Z,2.56
2019-02-03T05:43:50.796Z,2.56
2019-02-03T05:44:50.796Z,2.59
2019-02-03T05:45:50.797Z,2.61
2019-02-03T05:46:50.797Z,2.61
2019-02-03T05:47:50.797Z,2.51
2019-02-03T05:48:50.804Z,2.61
2019-02-03T05:49:50.801Z,2.69
2019-02-03T05:50:50.803Z,2.69
2019-02-03T05:51:50.804Z,2.61
2019-02-03T05:52:50.810Z,2.66
2019-02-03T05:53:50.808Z,2.59
2019-02-03T05:54:50.804Z,2.55
2019-02-03T05:55:50.801Z,2.51
2019-02-03T05:56:50.804Z,2.63
2019-02-03T05:57:50.815Z,2.65
2019-02-03T05:58:50.816Z,2.66
2019-02-03T05:59:50.810Z,2.74
2019-02-03T06:00:50.810Z,2.71
2019-02-03T06:01:50.810Z,2.77
2019-02-03T06:02:50.818Z,2.77
2019-02-03T06:03:50.826Z,2.79
2019-02-03T06:04:50.810Z,2.83
2019-02-03T06:05:50.822Z,2.84
2019-02-03T06:06:50.823Z,2.83
2019-02-03T06:07:50.818Z,2.77
2019-02-03T06:08:50.856Z,2.80
2019-02-03T06:09:50.822Z,2.79
2019-02-03T06:10:50.817Z,2.77
2019-02-03T06:11:50.810Z,2.74
2019-02-03T06:12:50.821Z,2.68
2019-02-03T06:13:50.821Z,2.74
2019-02-03T06:14:50.829Z,2.83
2019-02-03T06:15:50.839Z,2.77
2019-02-03T06:16:50.825Z,2.77
2019-02-03T06:17:50.823Z,2.80
2019-02-03T06:18:50.830Z,2.83
2019-02-03T06:19:50.828Z,2.83
2019-02-03T06:20:50.828Z,2.81
2019-02-03T06:21:50.834Z,2.76
2019-02-03T06:22:50.831Z,2.73
2019-02-03T06:23:50.844Z,2.73
2019-02-03T06:24:51.875Z,2.73
2019-02-03T06:25:50.835Z,2.69
2019-02-03T06:26:50.827Z,2.68
2019-02-03T06:27:50.833Z,2.74
2019-02-03T06:28:50.827Z,2.59
2019-02-03T06:29:50.835Z,2.71
2019-02-03T06:30:50.843Z,2.71
2019-02-03T06:31:50.843Z,2.77
2019-02-03T06:32:50.842Z,2.74
2019-02-03T06:33:50.836Z,2.63
2019-02-03T06:34:50.840Z,2.62
2019-02-03T06:35:50.839Z,2.73
2019-02-03T06:36:51.948Z,2.68
2019-02-03T06:37:50.843Z,2.76
2019-02-03T06:38:50.843Z,2.76
2019-02-03T06:39:50.843Z,2.74
2019-02-03T06:40:50.846Z,2.79
2019-02-03T06:41:50.989Z,2.77
2019-02-03T06:42:50.843Z,2.79
2019-02-03T06:43:50.848Z,2.80
2019-02-03T06:44:50.856Z,2.81
2019-02-03T06:45:50.844Z,2.80
2019-02-03T06:46:50.851Z,2.80
2019-02-03T06:47:50.864Z,2.81
2019-02-03T06:48:50.856Z,2.83
2019-02-03T06:49:50.850Z,2.80
2019-02-03T06:50:50.847Z,2.92
2019-02-03T06:51:50.859Z,2.83
2019-02-03T06:52:50.862Z,2.89
2019-02-03T06:53:50.852Z,2.92
2019-02-03T06:54:50.853Z,2.97
2019-02-03T06:55:50.857Z,2.94
2019-02-03T06:56:50.857Z,2.87
2019-02-03T06:57:50.855Z,2.94
2019-02-03T06:58:50.858Z,2.95
2019-02-03T06:59:51.415Z,2.95
2019-02-03T07:00:50.867Z,2.89
2019-02-03T07:01:50.868Z,2.98
2019-02-03T07:02:50.859Z,3.02
2019-02-03T07:03:50.868Z,2.99
2019-02-03T07:04:50.862Z,2.99
2019-02-03T07:05:50.862Z,2.94
2019-02-03T07:06:50.860Z,2.98
2019-02-03T07:07:50.863Z,2.98
2019-02-03T07:08:50.871Z,2.99
2019-02-03T07:10:00.061Z,2.97
2019-02-03T07:10:50.871Z,2.99
2019-02-03T07:11:50.871Z,2.97
2019-02-03T07:12:50.876Z,3.01
2019-02-03T07:13:50.871Z,2.94
2019-02-03T07:14:50.873Z,3.02
2019-02-03T07:15:50.871Z,3.01
2019-02-03T07:16:50.871Z,3.02
2019-02-03T07:17:50.872Z,3.12
2019-02-03T07:18:50.874Z,3.05
2019-02-03T07:19:50.878Z,3.12
2019-02-03T07:20:50.883Z,3.08
2019-02-03T07:21:50.875Z,3.07
2019-02-03T07:22:50.898Z,3.05
2019-02-03T07:23:50.883Z,3.05
2019-02-03T07:24:50.879Z,3.13
2019-02-03T07:25:50.884Z,3.16
2019-02-03T07:26:50.882Z,3.16
2019-02-03T07:27:50.881Z,3.22
2019-02-03T07:28:50.882Z,3.12
2019-02-03T07:29:50.886Z,3.16
2019-02-03T07:30:50.884Z,3.15
2019-02-03T07:31:50.886Z,3.12
2019-02-03T07:32:50.887Z,3.19
2019-02-03T07:33:50.887Z,3.19
2019-02-03T07:34:50.883Z,3.17
2019-02-03T07:35:50.888Z,3.15
2019-02-03T07:36:50.892Z,3.13
2019-02-03T07:37:50.910Z,3.13
2019-02-03T07:38:50.894Z,3.02
2019-02-03T07:39:50.891Z,3.07
2019-02-03T07:40:50.894Z,3.05
2019-02-03T07:41:50.892Z,3.07
2019-02-03T07:42:50.904Z,3.10
2019-02-03T07:43:50.920Z,3.02
2019-02-03T07:44:50.911Z,3.04
2019-02-03T07:45:50.897Z,3.05
2019-02-03T07:46:50.908Z,3.04
2019-02-03T07:47:50.905Z,3.10
2019-02-03T07:48:50.899Z,3.07
2019-02-03T07:49:50.911Z,3.07
2019-02-03T07:50:50.902Z,3.01
2019-02-03T07:51:50.902Z,2.98
2019-02-03T07:52:50.900Z,2.95
2019-02-03T07:53:50.906Z,3.02
2019-02-03T07:54:50.896Z,2.97
2019-02-03T07:55:50.906Z,2.95
2019-02-03T07:56:50.907Z,2.99
2019-02-03T07:57:50.911Z,2.99
2019-02-03T07:58:50.907Z,2.95
2019-02-03T07:59:50.908Z,3.02
2019-02-03T08:00:50.909Z,2.95
2019-02-03T08:01:50.913Z,2.98
2019-02-03T08:02:50.911Z,3.02
2019-02-03T08:03:50.909Z,2.97
2019-02-03T08:04:50.914Z,2.95
2019-02-03T08:05:50.913Z,2.94
2019-02-03T08:06:50.914Z,2.92
2019-02-03T08:07:50.911Z,2.92
2019-02-03T08:08:50.913Z,2.90
2019-02-03T08:09:50.926Z,2.98
2019-02-03T08:10:50.919Z,2.90
2019-02-03T08:11:50.910Z,2.95
2019-02-03T08:12:50.945Z,3.01
2019-02-03T08:13:50.928Z,3.04
2019-02-03T08:14:50.931Z,3.04
2019-02-03T08:15:50.923Z,3.04
2019-02-03T08:16:50.921Z,2.97
2019-02-03T08:17:50.928Z,3.05
2019-02-03T08:18:50.938Z,3.15
2019-02-03T08:19:51.013Z,3.08
2019-02-03T08:20:50.924Z,3.02
2019-02-03T08:21:50.926Z,3.08
2019-02-03T08:22:50.921Z,3.08
2019-02-03T08:23:51.347Z,3.13
2019-02-03T08:24:50.931Z,3.07
2019-02-03T08:25:54.871Z,3.08
2019-02-03T08:27:50.940Z,3.04
2019-02-03T08:28:50.938Z,3.12
2019-02-03T08:29:50.939Z,3.05
2019-02-03T08:30:50.961Z,3.15
2019-02-03T08:31:50.943Z,3.13
2019-02-03T08:32:50.942Z,3.17
2019-02-03T08:33:50.948Z,3.13
2019-02-03T08:34:51.441Z,3.12
2019-02-03T08:35:51.339Z,3.19
2019-02-03T08:37:51.204Z,3.19
2019-02-03T08:38:50.961Z,3.25
2019-02-03T08:39:51.068Z,3.30
2019-02-03T08:40:50.964Z,3.26
2019-02-03T08:41:51.111Z,3.20
2019-02-03T08:42:51.109Z,3.26
2019-02-03T08:43:50.969Z,3.33
2019-02-03T08:44:50.973Z,3.28
2019-02-03T08:45:50.974Z,3.33
2019-02-03T08:46:50.966Z,3.34
2019-02-03T08:47:50.963Z,3.41
2019-02-03T08:48:50.968Z,3.35
2019-02-03T08:49:50.968Z,3.42
2019-02-03T08:50:50.978Z,3.42
2019-02-03T08:51:51.234Z,3.52
2019-02-03T08:52:51.417Z,3.53
2019-02-03T08:53:50.985Z,3.52
2019-02-03T08:54:58.379Z,3.56
2019-02-03T08:55:50.986Z,3.56
2019-02-03T08:56:50.969Z,3.63
2019-02-03T08:57:51.060Z,3.64
2019-02-03T08:58:50.974Z,3.60
2019-02-03T08:59:51.024Z,3.57
2019-02-03T09:00:50.988Z,3.67
2019-02-03T09:01:50.998Z,3.74
2019-02-03T09:02:50.999Z,3.60
2019-02-03T09:03:51.007Z,3.75
2019-02-03T09:04:51.000Z,3.70
2019-02-03T09:05:50.991Z,3.74
2019-02-03T09:06:50.993Z,3.75
2019-02-03T09:07:51.012Z,3.72
2019-02-03T09:08:51.015Z,3.75
2019-02-03T09:09:50.999Z,3.81
2019-02-03T09:10:53.773Z,3.90
2019-02-03T09:11:51.017Z,3.89
2019-02-03T09:12:51.152Z,3.90
2019-02-03T09:13:50.994Z,3.99
2019-02-03T09:14:51.001Z,3.95
2019-02-03T09:15:52.070Z,3.93
2019-02-03T09:16:51.016Z,3.96
2019-02-03T09:17:51.010Z,4.04
2019-02-03T09:18:51.101Z,4.07
2019-02-03T09:19:51.025Z,4.06
2019-02-03T09:25:33.041Z,4.17
2019-02-03T09:26:33.012Z,4.20
2019-02-03T09:27:33.010Z,4.29
2019-02-03T09:28:33.023Z,4.35
2019-02-03T09:29:33.015Z,4.35
2019-02-03T09:30:33.023Z,4.43
2019-02-03T09:31:33.019Z,4.57
2019-02-03T09:32:33.026Z,4.75
2019-02-03T09:33:33.039Z,4.94
2019-02-03T09:34:33.129Z,5.08
2019-02-03T09:35:33.040Z,5.33
2019-02-03T09:36:33.043Z,5.59
2019-02-03T09:37:33.049Z,5.85
2019-02-03T09:38:33.052Z,6.14
2019-02-03T09:39:33.054Z,6.38
2019-02-03T09:40:33.059Z,6.53
2019-02-03T09:41:33.075Z,6.86
2019-02-03T09:42:33.071Z,7.08
2019-02-03T09:43:33.094Z,7.16
2019-02-03T09:44:33.104Z,7.48
2019-02-03T09:45:33.120Z,7.52
2019-02-03T09:46:33.128Z,7.62
2019-02-03T09:47:33.132Z,7.57
2019-02-03T09:48:33.139Z,7.74
2019-02-03T09:49:33.160Z,7.91
2019-02-03T09:50:33.169Z,8.09
2019-02-03T09:51:33.177Z,8.37
2019-02-03T09:52:33.335Z,8.61
2019-02-03T09:53:33.205Z,8.67
2019-02-03T09:54:33.212Z,8.61
2019-02-03T09:55:33.220Z,8.63
2019-02-03T09:56:33.252Z,8.79
2019-02-03T09:57:33.250Z,8.98
2019-02-03T09:59:33.274Z,9.04
2019-02-03T10:00:33.290Z,9.26
2019-02-03T10:01:33.299Z,9.34
2019-02-03T10:02:33.319Z,9.38
2019-02-03T10:03:33.332Z,9.60
2019-02-03T10:04:33.346Z,9.83
2019-02-03T10:05:33.354Z,9.50
2019-02-03T10:06:33.367Z,9.63
2019-02-03T10:07:33.382Z,9.89
2019-02-03T10:08:40.334Z,9.75
2019-02-03T10:09:33.415Z,9.41
2019-02-03T10:10:33.438Z,9.62
2019-02-03T10:11:33.447Z,9.85
2019-02-03T10:12:33.454Z,9.93
2019-02-03T10:13:33.476Z,10.17
2019-02-03T10:14:33.482Z,10.39
2019-02-03T10:15:33.495Z,10.62
2019-02-03T10:16:33.507Z,10.78
2019-02-03T10:17:33.532Z,10.99
2019-02-03T10:18:33.537Z,11.33
2019-02-03T10:19:33.552Z,11.30
2019-02-03T10:20:33.572Z,11.78
2019-02-03T10:21:33.589Z,11.85
2019-02-03T10:22:33.610Z,12.04
2019-02-03T10:23:33.607Z,12.33
2019-02-03T10:24:41.992Z,12.30
2019-02-03T10:25:33.652Z,12.44
2019-02-03T10:26:33.660Z,12.70
2019-02-03T10:27:33.675Z,12.49
2019-02-03T10:28:33.696Z,12.66
2019-02-03T10:29:33.701Z,12.63
2019-02-03T10:30:33.725Z,12.73
2019-02-03T10:31:33.739Z,12.70
2019-02-03T10:32:33.748Z,12.59
2019-02-03T10:33:33.767Z,12.66
2019-02-03T10:34:33.785Z,13.13
2019-02-03T10:35:33.790Z,13.25
2019-02-03T10:36:33.817Z,13.25
2019-02-03T10:37:33.838Z,13.17
2019-02-03T10:38:33.987Z,13.25
2019-02-03T10:39:33.862Z,13.36
2019-02-03T10:40:33.865Z,13.54
2019-02-03T10:41:34.060Z,13.79
2019-02-03T10:42:33.908Z,14.11
2019-02-03T10:43:33.914Z,14.46
2019-02-03T10:44:33.932Z,14.49
2019-02-03T10:45:33.953Z,13.80
2019-02-03T10:46:33.965Z,13.62
2019-02-03T10:47:34.044Z,14.08
2019-02-03T10:48:33.992Z,14.31
2019-02-03T10:49:34.005Z,14.61
2019-02-03T10:50:34.029Z,14.87
2019-02-03T10:51:34.051Z,15.07
2019-02-03T10:52:34.057Z,14.79
2019-02-03T10:53:34.071Z,14.44
2019-02-03T10:54:34.093Z,14.08
2019-02-03T10:55:34.108Z,13.14
2019-02-03T10:56:34.134Z,12.61
2019-02-03T10:57:34.135Z,12.34
2019-02-03T10:58:34.147Z,11.88
2019-02-03T10:59:34.163Z,11.02
2019-02-03T11:00:34.181Z,10.80
2019-02-03T11:01:34.191Z,10.55
2019-02-03T11:02:34.204Z,10.49
2019-02-03T11:03:34.217Z,10.44
2019-02-03T11:04:34.235Z,10.52
2019-02-03T11:05:34.243Z,10.58
2019-02-03T11:06:34.251Z,10.68
2019-02-03T11:07:34.268Z,10.86
2019-02-03T11:08:34.283Z,10.80
2019-02-03T11:09:34.285Z,10.90
2019-02-03T11:10:34.294Z,10.84
2019-02-03T11:11:36.592Z,10.70
2019-02-03T11:12:34.323Z,10.70
2019-02-03T11:13:34.327Z,10.62
2019-02-03T11:14:34.338Z,10.52
2019-02-03T11:15:34.350Z,10.14
2019-02-03T11:16:34.352Z,9.91
2019-02-03T11:17:34.381Z,9.74
2019-02-03T11:18:34.387Z,9.62
2019-02-03T11:19:34.399Z,9.62
2019-02-03T11:20:34.414Z,9.67
2019-02-03T11:21:34.404Z,9.93
2019-02-03T11:22:34.422Z,10.54
2019-02-03T11:23:34.434Z,11.77
2019-02-03T11:24:34.444Z,12.37
2019-02-03T11:25:34.456Z,12.40
2019-02-03T11:26:34.466Z,11.94
2019-02-03T11:27:34.470Z,11.33
2019-02-03T11:28:34.478Z,11.20
2019-02-03T11:29:34.501Z,11.41
2019-02-03T11:30:34.504Z,11.31
2019-02-03T11:31:34.524Z,11.08
2019-02-03T11:32:34.526Z,11.09
2019-02-03T11:33:34.539Z,10.83
2019-02-03T11:34:34.547Z,10.62
2019-02-03T11:35:34.558Z,10.07
2019-02-03T11:36:34.569Z,9.71
2019-02-03T11:37:34.577Z,9.63
2019-02-03T11:38:34.591Z,9.53
2019-02-03T11:39:34.590Z,9.41
2019-02-03T11:40:34.608Z,8.82
2019-02-03T11:41:34.608Z,8.57
2019-02-03T11:42:34.621Z,8.45
2019-02-03T11:43:34.651Z,8.39
2019-02-03T11:44:34.635Z,8.24
2019-02-03T11:45:34.654Z,8.32
2019-02-03T11:46:34.790Z,8.55
2019-02-03T11:47:34.658Z,8.73
2019-02-03T11:48:34.667Z,8.79
2019-02-03T11:49:34.676Z,8.88
2019-02-03T11:50:34.684Z,8.76
2019-02-03T11:51:34.695Z,8.85
2019-02-03T11:52:34.707Z,8.85
2019-02-03T11:53:34.713Z,8.86
2019-02-03T11:54:34.719Z,8.65
2019-02-03T11:55:34.728Z,8.50
2019-02-03T11:56:34.726Z,8.25
2019-02-03T11:57:34.746Z,8.14
2019-02-03T11:58:34.753Z,8.27
2019-02-03T11:59:34.765Z,8.14
2019-02-03T12:00:34.768Z,8.04
2019-02-03T12:01:34.769Z,8.03
2019-02-03T12:02:41.775Z,7.86
2019-02-03T12:03:34.882Z,7.85
2019-02-03T12:04:34.795Z,7.99
2019-02-03T12:05:34.825Z,7.92
2019-02-03T12:06:34.810Z,7.94
2019-02-03T12:07:34.816Z,7.99
2019-02-03T12:08:34.830Z,7.85
2019-02-03T12:09:34.836Z,7.55
2019-02-03T12:10:34.832Z,7.42
2019-02-03T12:11:34.836Z,7.21
2019-02-03T12:12:34.848Z,7.27
2019-02-03T12:13:34.850Z,7.33
2019-02-03T12:14:34.854Z,7.57
2019-02-03T12:15:34.876Z,7.74
2019-02-03T12:16:34.881Z,7.92
2019-02-03T12:17:34.880Z,8.04
2019-02-03T12:18:34.895Z,8.13
2019-02-03T12:19:34.914Z,8.50
2019-02-03T12:20:34.900Z,8.80
2019-02-03T12:21:34.909Z,8.79
2019-02-03T12:22:34.915Z,8.76
2019-02-03T12:23:34.922Z,8.68
2019-02-03T12:24:34.928Z,8.55
2019-02-03T12:25:34.979Z,8.57
2019-02-03T12:26:36.494Z,8.64
2019-02-03T12:27:34.950Z,8.79
2019-02-03T12:28:34.952Z,8.83
2019-02-03T12:29:34.960Z,8.86
2019-02-03T12:30:34.961Z,8.76
2019-02-03T12:31:34.981Z,8.64
2019-02-03T12:32:34.984Z,8.52
2019-02-03T12:33:34.985Z,8.40
2019-02-03T12:34:35.008Z,8.46
2019-02-03T12:35:35.008Z,8.27
2019-02-03T12:36:35.005Z,8.37
2019-02-03T12:37:35.014Z,8.36
2019-02-03T12:38:35.023Z,8.34
2019-02-03T12:39:35.031Z,8.60
2019-02-03T12:40:35.041Z,8.80
2019-02-03T12:41:35.045Z,9.53
2019-02-03T12:42:35.054Z,10.44
2019-02-03T12:43:35.070Z,10.44
2019-02-03T12:44:35.073Z,10.20
2019-02-03T12:45:35.075Z,9.71
2019-02-03T12:46:35.088Z,9.50
2019-02-03T12:47:35.112Z,9.31
2019-02-03T12:48:35.101Z,9.06
2019-02-03T12:49:35.105Z,8.78
2019-02-03T12:50:35.124Z,8.37
2019-02-03T12:51:35.124Z,8.24
2019-02-03T12:52:35.139Z,8.06
2019-02-03T12:53:35.139Z,7.94
2019-02-03T12:54:35.160Z,7.95
2019-02-03T12:55:35.152Z,7.94
2019-02-03T12:56:35.160Z,7.92
2019-02-03T12:57:35.169Z,7.77
2019-02-03T12:58:35.172Z,7.69
2019-02-03T12:59:35.181Z,7.50
2019-02-03T13:00:35.202Z,7.51
2019-02-03T13:01:35.191Z,7.45
2019-02-03T13:02:35.221Z,7.41
2019-02-03T13:03:35.290Z,7.36
2019-02-03T13:04:35.204Z,7.44
2019-02-03T13:05:35.222Z,7.48
2019-02-03T13:06:35.228Z,7.50
2019-02-03T13:07:35.229Z,7.42
2019-02-03T13:08:35.246Z,7.52
2019-02-03T13:09:35.247Z,7.63
2019-02-03T13:10:35.255Z,7.69
2019-02-03T13:11:37.485Z,7.73
2019-02-03T13:12:35.267Z,7.71
2019-02-03T13:13:35.268Z,7.69
2019-02-03T13:14:35.277Z,7.52
2019-02-03T13:15:35.292Z,7.52
2019-02-03T13:16:35.287Z,7.47
2019-02-03T13:17:35.291Z,7.55
2019-02-03T13:18:35.297Z,7.50
2019-02-03T13:19:35.322Z,7.42
2019-02-03T13:20:35.312Z,7.34
2019-02-03T13:21:35.314Z,7.33
2019-02-03T13:22:35.320Z,7.36
2019-02-03T13:23:44.517Z,7.33
2019-02-03T13:24:35.331Z,7.45
2019-02-03T13:25:35.342Z,7.45
2019-02-03T13:26:35.338Z,7.60
2019-02-03T13:27:35.351Z,7.73
2019-02-03T13:28:35.504Z,7.60
2019-02-03T13:29:35.362Z,7.54